sensor_id;sensor_type;location;lat;lon;timestamp;P1;durP1;ratioP1;P2;durP2;ratioP2
48487;SDS011;34289;48.572;13.378;2023-05-16T00:00:34;122.47;;;9.43;;
48487;SDS011;34289;48.572;13.378;2023-05-16T00:03:00;106.53;;;11.15;;
48487;SDS011;34289;48.572;13.378;2023-05-16T00:05:27;98.00;;;10.57;;
48487;SDS011;34289;48.572;13.378;2023-05-16T00:07:53;85.07;;;10.38;;
48487;SDS011;34289;48.572;13.378;2023-05-16T00:10:19;85.70;;;9.88;;
48487;SDS011;34289;48.572;13.378;2023-05-16T00:12:46;155.18;;;12.23;;
48487;SDS011;34289;48.572;13.378;2023-05-16T00:15:15;150.88;;;10.98;;
48487;SDS011;34289;48.572;13.378;2023-05-16T00:17:42;115.20;;;9.95;;
48487;SDS011;34289;48.572;13.378;2023-05-16T00:20:10;73.38;;;8.25;;
48487;SDS011;34289;48.572;13.378;2023-05-16T00:22:38;83.30;;;9.10;;
48487;SDS011;34289;48.572;13.378;2023-05-16T00:25:04;56.58;;;8.68;;
48487;SDS011;34289;48.572;13.378;2023-05-16T00:27:32;23.15;;;7.20;;
48487;SDS011;34289;48.572;13.378;2023-05-16T00:29:58;23.83;;;7.70;;
48487;SDS011;34289;48.572;13.378;2023-05-16T00:32:24;12.05;;;7.57;;
48487;SDS011;34289;48.572;13.378;2023-05-16T00:34:50;8.73;;;6.93;;
48487;SDS011;34289;48.572;13.378;2023-05-16T00:37:16;9.32;;;7.65;;
48487;SDS011;34289;48.572;13.378;2023-05-16T00:39:42;24.73;;;7.65;;
48487;SDS011;34289;48.572;13.378;2023-05-16T00:42:08;13.05;;;7.40;;
48487;SDS011;34289;48.572;13.378;2023-05-16T00:44:34;19.13;;;6.72;;
48487;SDS011;34289;48.572;13.378;2023-05-16T00:47:00;28.55;;;7.82;;
48487;SDS011;34289;48.572;13.378;2023-05-16T00:49:27;14.20;;;7.25;;
48487;SDS011;34289;48.572;13.378;2023-05-16T00:51:54;12.75;;;7.53;;
48487;SDS011;34289;48.572;13.378;2023-05-16T00:54:21;11.43;;;7.50;;
48487;SDS011;34289;48.572;13.378;2023-05-16T00:56:47;21.02;;;7.43;;
48487;SDS011;34289;48.572;13.378;2023-05-16T00:59:13;25.02;;;6.68;;
48487;SDS011;34289;48.572;13.378;2023-05-16T01:01:40;19.45;;;7.70;;
48487;SDS011;34289;48.572;13.378;2023-05-16T01:04:06;21.90;;;6.88;;
48487;SDS011;34289;48.572;13.378;2023-05-16T01:06:32;20.15;;;7.10;;
48487;SDS011;34289;48.572;13.378;2023-05-16T01:08:58;23.88;;;7.43;;
48487;SDS011;34289;48.572;13.378;2023-05-16T01:14:04;20.98;;;5.82;;
48487;SDS011;34289;48.572;13.378;2023-05-16T01:16:41;13.80;;;5.43;;
48487;SDS011;34289;48.572;13.378;2023-05-16T01:22:05;13.93;;;5.88;;
48487;SDS011;34289;48.572;13.378;2023-05-16T01:24:35;15.13;;;6.05;;
48487;SDS011;34289;48.572;13.378;2023-05-16T01:27:05;16.50;;;6.80;;
48487;SDS011;34289;48.572;13.378;2023-05-16T01:29:32;7.80;;;5.35;;
48487;SDS011;34289;48.572;13.378;2023-05-16T01:31:58;11.55;;;6.40;;
48487;SDS011;34289;48.572;13.378;2023-05-16T01:34:24;8.52;;;6.30;;
48487;SDS011;34289;48.572;13.378;2023-05-16T01:37:34;15.63;;;6.57;;
48487;SDS011;34289;48.572;13.378;2023-05-16T01:47:16;21.35;;;8.90;;
48487;SDS011;34289;48.572;13.378;2023-05-16T01:49:45;13.80;;;9.02;;
48487;SDS011;34289;48.572;13.378;2023-05-16T01:52:29;14.95;;;8.73;;
48487;SDS011;34289;48.572;13.378;2023-05-16T01:55:00;19.90;;;8.77;;
48487;SDS011;34289;48.572;13.378;2023-05-16T01:57:27;51.45;;;8.65;;
48487;SDS011;34289;48.572;13.378;2023-05-16T01:59:55;55.30;;;10.55;;
48487;SDS011;34289;48.572;13.378;2023-05-16T02:02:22;25.08;;;8.68;;
48487;SDS011;34289;48.572;13.378;2023-05-16T02:04:48;59.70;;;7.95;;
48487;SDS011;34289;48.572;13.378;2023-05-16T02:07:14;73.85;;;9.60;;
48487;SDS011;34289;48.572;13.378;2023-05-16T02:09:40;29.75;;;8.20;;
48487;SDS011;34289;48.572;13.378;2023-05-16T02:12:06;24.20;;;8.30;;
48487;SDS011;34289;48.572;13.378;2023-05-16T02:14:32;43.83;;;8.52;;
48487;SDS011;34289;48.572;13.378;2023-05-16T02:16:58;44.95;;;8.63;;
48487;SDS011;34289;48.572;13.378;2023-05-16T02:19:23;19.25;;;8.18;;
48487;SDS011;34289;48.572;13.378;2023-05-16T02:21:49;33.67;;;7.88;;
48487;SDS011;34289;48.572;13.378;2023-05-16T02:24:15;12.50;;;7.85;;
48487;SDS011;34289;48.572;13.378;2023-05-16T02:26:41;13.30;;;8.70;;
48487;SDS011;34289;48.572;13.378;2023-05-16T02:29:08;24.38;;;9.15;;
48487;SDS011;34289;48.572;13.378;2023-05-16T02:31:34;37.60;;;7.97;;
48487;SDS011;34289;48.572;13.378;2023-05-16T02:34:00;24.10;;;8.65;;
48487;SDS011;34289;48.572;13.378;2023-05-16T02:36:27;20.60;;;8.38;;
48487;SDS011;34289;48.572;13.378;2023-05-16T02:38:53;29.50;;;8.95;;
48487;SDS011;34289;48.572;13.378;2023-05-16T02:41:19;27.67;;;10.50;;
48487;SDS011;34289;48.572;13.378;2023-05-16T02:43:46;17.63;;;8.68;;
48487;SDS011;34289;48.572;13.378;2023-05-16T02:48:51;26.45;;;9.32;;
48487;SDS011;34289;48.572;13.378;2023-05-16T02:51:21;28.98;;;7.93;;
48487;SDS011;34289;48.572;13.378;2023-05-16T02:53:48;37.08;;;8.77;;
48487;SDS011;34289;48.572;13.378;2023-05-16T02:56:15;28.27;;;9.35;;
48487;SDS011;34289;48.572;13.378;2023-05-16T02:58:41;35.50;;;9.25;;
48487;SDS011;34289;48.572;13.378;2023-05-16T03:01:07;40.28;;;8.10;;
48487;SDS011;34289;48.572;13.378;2023-05-16T03:03:35;68.43;;;9.70;;
48487;SDS011;34289;48.572;13.378;2023-05-16T03:06:01;67.28;;;9.85;;
48487;SDS011;34289;48.572;13.378;2023-05-16T03:08:27;74.80;;;8.85;;
48487;SDS011;34289;48.572;13.378;2023-05-16T03:10:53;74.88;;;8.02;;
48487;SDS011;34289;48.572;13.378;2023-05-16T03:13:19;44.50;;;9.32;;
48487;SDS011;34289;48.572;13.378;2023-05-16T03:15:46;121.32;;;10.52;;
48487;SDS011;34289;48.572;13.378;2023-05-16T03:18:12;74.88;;;9.32;;
48487;SDS011;34289;48.572;13.378;2023-05-16T03:20:38;65.38;;;10.02;;
48487;SDS011;34289;48.572;13.378;2023-05-16T03:23:04;66.72;;;11.02;;
48487;SDS011;34289;48.572;13.378;2023-05-16T03:25:34;34.58;;;10.10;;
48487;SDS011;34289;48.572;13.378;2023-05-16T03:28:01;89.80;;;9.75;;
48487;SDS011;34289;48.572;13.378;2023-05-16T03:30:27;22.10;;;10.55;;
48487;SDS011;34289;48.572;13.378;2023-05-16T03:32:53;79.90;;;13.43;;
48487;SDS011;34289;48.572;13.378;2023-05-16T03:35:20;27.92;;;10.82;;
48487;SDS011;34289;48.572;13.378;2023-05-16T03:37:46;22.88;;;11.00;;
48487;SDS011;34289;48.572;13.378;2023-05-16T03:40:12;31.65;;;10.85;;
48487;SDS011;34289;48.572;13.378;2023-05-16T03:42:38;30.10;;;11.20;;
48487;SDS011;34289;48.572;13.378;2023-05-16T03:45:04;34.05;;;10.95;;
48487;SDS011;34289;48.572;13.378;2023-05-16T03:47:30;41.38;;;9.85;;
48487;SDS011;34289;48.572;13.378;2023-05-16T03:49:56;53.65;;;11.85;;
48487;SDS011;34289;48.572;13.378;2023-05-16T03:52:22;61.95;;;10.20;;
48487;SDS011;34289;48.572;13.378;2023-05-16T03:54:48;21.98;;;10.45;;
48487;SDS011;34289;48.572;13.378;2023-05-16T03:57:14;13.18;;;9.70;;
48487;SDS011;34289;48.572;13.378;2023-05-16T03:59:40;152.80;;;11.27;;
48487;SDS011;34289;48.572;13.378;2023-05-16T04:02:06;55.30;;;10.75;;
48487;SDS011;34289;48.572;13.378;2023-05-16T04:04:32;114.15;;;11.68;;
48487;SDS011;34289;48.572;13.378;2023-05-16T04:06:59;88.28;;;10.05;;
48487;SDS011;34289;48.572;13.378;2023-05-16T04:09:28;89.55;;;9.30;;
48487;SDS011;34289;48.572;13.378;2023-05-16T04:11:54;51.15;;;11.18;;
48487;SDS011;34289;48.572;13.378;2023-05-16T04:14:21;42.13;;;10.95;;
48487;SDS011;34289;48.572;13.378;2023-05-16T04:16:47;17.25;;;10.55;;
48487;SDS011;34289;48.572;13.378;2023-05-16T04:19:13;62.15;;;10.57;;
48487;SDS011;34289;48.572;13.378;2023-05-16T04:21:39;17.73;;;10.65;;
48487;SDS011;34289;48.572;13.378;2023-05-16T04:24:05;65.15;;;9.95;;
48487;SDS011;34289;48.572;13.378;2023-05-16T04:26:32;99.10;;;10.13;;
48487;SDS011;34289;48.572;13.378;2023-05-16T04:28:58;70.82;;;9.85;;
48487;SDS011;34289;48.572;13.378;2023-05-16T04:31:24;29.13;;;9.68;;
48487;SDS011;34289;48.572;13.378;2023-05-16T04:33:50;33.90;;;10.40;;
48487;SDS011;34289;48.572;13.378;2023-05-16T04:36:17;20.52;;;11.45;;
48487;SDS011;34289;48.572;13.378;2023-05-16T04:38:43;47.55;;;10.48;;
48487;SDS011;34289;48.572;13.378;2023-05-16T04:41:11;21.52;;;10.18;;
48487;SDS011;34289;48.572;13.378;2023-05-16T04:43:37;24.85;;;10.68;;
48487;SDS011;34289;48.572;13.378;2023-05-16T04:46:04;23.05;;;11.35;;
48487;SDS011;34289;48.572;13.378;2023-05-16T04:48:31;21.70;;;11.98;;
48487;SDS011;34289;48.572;13.378;2023-05-16T04:50:57;32.35;;;11.18;;
48487;SDS011;34289;48.572;13.378;2023-05-16T04:53:23;25.15;;;10.77;;
48487;SDS011;34289;48.572;13.378;2023-05-16T04:55:49;43.42;;;10.60;;
48487;SDS011;34289;48.572;13.378;2023-05-16T04:58:15;20.02;;;11.10;;
48487;SDS011;34289;48.572;13.378;2023-05-16T05:00:41;32.85;;;11.57;;
48487;SDS011;34289;48.572;13.378;2023-05-16T05:03:07;16.20;;;11.30;;
48487;SDS011;34289;48.572;13.378;2023-05-16T05:05:33;18.73;;;12.48;;
48487;SDS011;34289;48.572;13.378;2023-05-16T05:07:59;24.30;;;10.45;;
48487;SDS011;34289;48.572;13.378;2023-05-16T05:10:25;15.45;;;11.35;;
48487;SDS011;34289;48.572;13.378;2023-05-16T05:12:52;19.80;;;10.75;;
48487;SDS011;34289;48.572;13.378;2023-05-16T05:15:18;19.98;;;11.18;;
48487;SDS011;34289;48.572;13.378;2023-05-16T05:17:44;42.90;;;10.20;;
48487;SDS011;34289;48.572;13.378;2023-05-16T05:20:10;44.38;;;11.20;;
48487;SDS011;34289;48.572;13.378;2023-05-16T05:22:36;21.35;;;12.02;;
48487;SDS011;34289;48.572;13.378;2023-05-16T05:25:03;18.90;;;11.07;;
48487;SDS011;34289;48.572;13.378;2023-05-16T05:27:29;24.70;;;14.05;;
48487;SDS011;34289;48.572;13.378;2023-05-16T05:29:55;19.10;;;12.50;;
48487;SDS011;34289;48.572;13.378;2023-05-16T05:32:21;19.90;;;13.57;;
48487;SDS011;34289;48.572;13.378;2023-05-16T05:34:47;23.75;;;13.77;;
48487;SDS011;34289;48.572;13.378;2023-05-16T05:37:13;23.85;;;15.80;;
48487;SDS011;34289;48.572;13.378;2023-05-16T05:39:39;25.30;;;15.23;;
48487;SDS011;34289;48.572;13.378;2023-05-16T05:42:05;23.42;;;15.35;;
48487;SDS011;34289;48.572;13.378;2023-05-16T05:44:31;30.85;;;15.20;;
48487;SDS011;34289;48.572;13.378;2023-05-16T05:46:57;21.67;;;13.93;;
48487;SDS011;34289;48.572;13.378;2023-05-16T05:49:24;28.33;;;14.30;;
48487;SDS011;34289;48.572;13.378;2023-05-16T05:51:50;25.42;;;14.52;;
48487;SDS011;34289;48.572;13.378;2023-05-16T05:54:19;26.45;;;14.30;;
48487;SDS011;34289;48.572;13.378;2023-05-16T05:56:46;23.17;;;15.70;;
48487;SDS011;34289;48.572;13.378;2023-05-16T05:59:12;26.67;;;16.50;;
48487;SDS011;34289;48.572;13.378;2023-05-16T06:01:38;27.40;;;16.48;;
48487;SDS011;34289;48.572;13.378;2023-05-16T06:04:04;32.47;;;15.90;;
48487;SDS011;34289;48.572;13.378;2023-05-16T06:06:30;25.83;;;15.63;;
48487;SDS011;34289;48.572;13.378;2023-05-16T06:08:57;21.85;;;15.07;;
48487;SDS011;34289;48.572;13.378;2023-05-16T06:11:23;23.60;;;16.00;;
48487;SDS011;34289;48.572;13.378;2023-05-16T06:13:52;21.80;;;15.27;;
48487;SDS011;34289;48.572;13.378;2023-05-16T06:16:18;23.52;;;14.93;;
48487;SDS011;34289;48.572;13.378;2023-05-16T06:18:44;22.23;;;14.65;;
48487;SDS011;34289;48.572;13.378;2023-05-16T06:21:10;26.83;;;17.13;;
48487;SDS011;34289;48.572;13.378;2023-05-16T06:23:37;24.13;;;15.68;;
48487;SDS011;34289;48.572;13.378;2023-05-16T06:26:03;24.63;;;16.65;;
48487;SDS011;34289;48.572;13.378;2023-05-16T06:28:29;21.67;;;14.95;;
48487;SDS011;34289;48.572;13.378;2023-05-16T06:30:56;21.70;;;15.57;;
48487;SDS011;34289;48.572;13.378;2023-05-16T06:33:21;22.35;;;15.73;;
48487;SDS011;34289;48.572;13.378;2023-05-16T06:35:47;22.42;;;15.57;;
48487;SDS011;34289;48.572;13.378;2023-05-16T06:38:14;22.08;;;15.73;;
48487;SDS011;34289;48.572;13.378;2023-05-16T06:40:40;21.85;;;15.35;;
48487;SDS011;34289;48.572;13.378;2023-05-16T06:43:06;21.35;;;14.98;;
48487;SDS011;34289;48.572;13.378;2023-05-16T06:45:32;25.75;;;14.90;;
48487;SDS011;34289;48.572;13.378;2023-05-16T06:47:58;22.75;;;15.73;;
48487;SDS011;34289;48.572;13.378;2023-05-16T06:50:24;23.90;;;16.42;;
48487;SDS011;34289;48.572;13.378;2023-05-16T06:52:50;20.70;;;16.08;;
48487;SDS011;34289;48.572;13.378;2023-05-16T06:55:16;22.90;;;15.05;;
48487;SDS011;34289;48.572;13.378;2023-05-16T06:57:42;23.13;;;16.25;;
48487;SDS011;34289;48.572;13.378;2023-05-16T07:00:08;23.27;;;15.38;;
48487;SDS011;34289;48.572;13.378;2023-05-16T07:02:34;23.60;;;15.82;;
48487;SDS011;34289;48.572;13.378;2023-05-16T07:05:00;23.45;;;16.25;;
48487;SDS011;34289;48.572;13.378;2023-05-16T07:07:26;24.73;;;15.48;;
48487;SDS011;34289;48.572;13.378;2023-05-16T07:09:52;22.65;;;16.42;;
48487;SDS011;34289;48.572;13.378;2023-05-16T07:12:18;21.63;;;14.52;;
48487;SDS011;34289;48.572;13.378;2023-05-16T07:14:44;20.73;;;15.07;;
48487;SDS011;34289;48.572;13.378;2023-05-16T07:17:11;21.75;;;15.43;;
48487;SDS011;34289;48.572;13.378;2023-05-16T07:19:37;23.67;;;17.45;;
48487;SDS011;34289;48.572;13.378;2023-05-16T07:22:03;21.13;;;16.05;;
48487;SDS011;34289;48.572;13.378;2023-05-16T07:24:29;22.13;;;16.35;;
48487;SDS011;34289;48.572;13.378;2023-05-16T07:26:55;20.08;;;14.75;;
48487;SDS011;34289;48.572;13.378;2023-05-16T07:29:21;22.38;;;14.85;;
48487;SDS011;34289;48.572;13.378;2023-05-16T07:31:47;22.25;;;15.85;;
48487;SDS011;34289;48.572;13.378;2023-05-16T07:34:13;21.63;;;16.00;;
48487;SDS011;34289;48.572;13.378;2023-05-16T07:36:39;21.30;;;15.05;;
48487;SDS011;34289;48.572;13.378;2023-05-16T07:39:05;20.45;;;14.07;;
48487;SDS011;34289;48.572;13.378;2023-05-16T07:41:31;20.50;;;14.93;;
48487;SDS011;34289;48.572;13.378;2023-05-16T07:43:57;17.73;;;13.93;;
48487;SDS011;34289;48.572;13.378;2023-05-16T07:46:23;18.40;;;13.48;;
48487;SDS011;34289;48.572;13.378;2023-05-16T07:48:49;21.48;;;15.23;;
48487;SDS011;34289;48.572;13.378;2023-05-16T07:51:16;23.02;;;13.70;;
48487;SDS011;34289;48.572;13.378;2023-05-16T07:53:41;18.27;;;13.15;;
48487;SDS011;34289;48.572;13.378;2023-05-16T07:56:07;17.58;;;13.93;;
48487;SDS011;34289;48.572;13.378;2023-05-16T07:58:33;19.50;;;13.07;;
48487;SDS011;34289;48.572;13.378;2023-05-16T08:01:00;16.52;;;12.73;;
48487;SDS011;34289;48.572;13.378;2023-05-16T08:03:25;18.35;;;13.02;;
48487;SDS011;34289;48.572;13.378;2023-05-16T08:05:52;17.15;;;12.40;;
48487;SDS011;34289;48.572;13.378;2023-05-16T08:08:18;17.83;;;13.05;;
48487;SDS011;34289;48.572;13.378;2023-05-16T08:10:43;17.38;;;13.40;;
48487;SDS011;34289;48.572;13.378;2023-05-16T08:13:09;17.17;;;12.00;;
48487;SDS011;34289;48.572;13.378;2023-05-16T08:15:35;18.33;;;12.50;;
48487;SDS011;34289;48.572;13.378;2023-05-16T08:18:01;15.52;;;12.02;;
48487;SDS011;34289;48.572;13.378;2023-05-16T08:20:27;17.00;;;12.27;;
48487;SDS011;34289;48.572;13.378;2023-05-16T08:22:53;16.10;;;12.48;;
48487;SDS011;34289;48.572;13.378;2023-05-16T08:25:19;16.48;;;12.57;;
48487;SDS011;34289;48.572;13.378;2023-05-16T08:27:45;16.88;;;12.15;;
48487;SDS011;34289;48.572;13.378;2023-05-16T08:30:12;19.17;;;12.60;;
48487;SDS011;34289;48.572;13.378;2023-05-16T08:32:38;19.30;;;13.45;;
48487;SDS011;34289;48.572;13.378;2023-05-16T08:35:04;18.10;;;12.63;;
48487;SDS011;34289;48.572;13.378;2023-05-16T08:37:30;17.83;;;11.85;;
48487;SDS011;34289;48.572;13.378;2023-05-16T08:39:57;15.25;;;12.23;;
48487;SDS011;34289;48.572;13.378;2023-05-16T08:42:23;21.25;;;14.57;;
48487;SDS011;34289;48.572;13.378;2023-05-16T08:44:49;16.17;;;13.40;;
48487;SDS011;34289;48.572;13.378;2023-05-16T08:47:19;17.27;;;13.52;;
48487;SDS011;34289;48.572;13.378;2023-05-16T08:49:48;16.33;;;12.40;;
48487;SDS011;34289;48.572;13.378;2023-05-16T08:52:17;17.33;;;12.55;;
48487;SDS011;34289;48.572;13.378;2023-05-16T08:54:43;18.95;;;12.20;;
48487;SDS011;34289;48.572;13.378;2023-05-16T08:57:12;15.63;;;11.73;;
48487;SDS011;34289;48.572;13.378;2023-05-16T08:59:39;18.10;;;12.18;;
48487;SDS011;34289;48.572;13.378;2023-05-16T09:02:04;12.60;;;10.95;;
48487;SDS011;34289;48.572;13.378;2023-05-16T09:04:31;15.23;;;10.80;;
48487;SDS011;34289;48.572;13.378;2023-05-16T09:06:57;14.57;;;11.38;;
48487;SDS011;34289;48.572;13.378;2023-05-16T09:09:23;14.85;;;11.27;;
48487;SDS011;34289;48.572;13.378;2023-05-16T09:11:49;16.30;;;11.48;;
48487;SDS011;34289;48.572;13.378;2023-05-16T09:14:15;17.02;;;11.75;;
48487;SDS011;34289;48.572;13.378;2023-05-16T09:16:41;15.10;;;10.93;;
48487;SDS011;34289;48.572;13.378;2023-05-16T09:19:10;13.70;;;11.45;;
48487;SDS011;34289;48.572;13.378;2023-05-16T09:21:37;14.93;;;12.18;;
48487;SDS011;34289;48.572;13.378;2023-05-16T09:24:08;19.08;;;10.60;;
48487;SDS011;34289;48.572;13.378;2023-05-16T09:26:34;13.90;;;10.88;;
48487;SDS011;34289;48.572;13.378;2023-05-16T09:29:01;15.82;;;11.50;;
48487;SDS011;34289;48.572;13.378;2023-05-16T09:31:27;14.13;;;11.45;;
48487;SDS011;34289;48.572;13.378;2023-05-16T09:34:03;14.15;;;10.52;;
48487;SDS011;34289;48.572;13.378;2023-05-16T09:36:33;10.57;;;8.35;;
48487;SDS011;34289;48.572;13.378;2023-05-16T09:38:59;11.88;;;9.15;;
48487;SDS011;34289;48.572;13.378;2023-05-16T09:41:25;12.85;;;9.23;;
48487;SDS011;34289;48.572;13.378;2023-05-16T09:43:51;11.15;;;9.18;;
48487;SDS011;34289;48.572;13.378;2023-05-16T09:46:17;14.95;;;9.88;;
48487;SDS011;34289;48.572;13.378;2023-05-16T09:48:44;14.02;;;9.27;;
48487;SDS011;34289;48.572;13.378;2023-05-16T09:51:11;12.10;;;8.82;;
48487;SDS011;34289;48.572;13.378;2023-05-16T09:53:38;12.30;;;8.55;;
48487;SDS011;34289;48.572;13.378;2023-05-16T09:56:05;11.95;;;9.10;;
48487;SDS011;34289;48.572;13.378;2023-05-16T09:58:38;11.18;;;8.00;;
48487;SDS011;34289;48.572;13.378;2023-05-16T10:01:04;9.70;;;7.75;;
48487;SDS011;34289;48.572;13.378;2023-05-16T10:03:32;10.98;;;7.82;;
48487;SDS011;34289;48.572;13.378;2023-05-16T10:05:59;10.10;;;7.85;;
48487;SDS011;34289;48.572;13.378;2023-05-16T10:08:25;8.32;;;6.93;;
48487;SDS011;34289;48.572;13.378;2023-05-16T10:10:52;9.65;;;7.65;;
48487;SDS011;34289;48.572;13.378;2023-05-16T10:13:22;15.05;;;8.05;;
48487;SDS011;34289;48.572;13.378;2023-05-16T10:15:54;9.88;;;7.80;;
48487;SDS011;34289;48.572;13.378;2023-05-16T10:18:21;8.27;;;6.93;;
48487;SDS011;34289;48.572;13.378;2023-05-16T10:20:48;9.00;;;6.07;;
48487;SDS011;34289;48.572;13.378;2023-05-16T10:23:18;8.55;;;6.85;;
48487;SDS011;34289;48.572;13.378;2023-05-16T10:25:45;6.50;;;5.45;;
48487;SDS011;34289;48.572;13.378;2023-05-16T10:28:11;6.97;;;5.70;;
48487;SDS011;34289;48.572;13.378;2023-05-16T10:30:42;9.43;;;6.25;;
48487;SDS011;34289;48.572;13.378;2023-05-16T10:33:13;7.65;;;5.97;;
48487;SDS011;34289;48.572;13.378;2023-05-16T10:35:39;7.30;;;6.50;;
48487;SDS011;34289;48.572;13.378;2023-05-16T10:38:06;7.35;;;6.55;;
48487;SDS011;34289;48.572;13.378;2023-05-16T10:40:33;7.68;;;6.88;;
48487;SDS011;34289;48.572;13.378;2023-05-16T10:43:01;10.18;;;6.47;;
48487;SDS011;34289;48.572;13.378;2023-05-16T10:45:27;9.27;;;6.10;;
48487;SDS011;34289;48.572;13.378;2023-05-16T10:47:57;10.18;;;6.13;;
48487;SDS011;34289;48.572;13.378;2023-05-16T10:50:30;8.48;;;5.18;;
48487;SDS011;34289;48.572;13.378;2023-05-16T11:06:27;6.90;;;6.20;;
48487;SDS011;34289;48.572;13.378;2023-05-16T11:14:20;8.77;;;7.45;;
48487;SDS011;34289;48.572;13.378;2023-05-16T11:16:47;8.73;;;7.55;;
48487;SDS011;34289;48.572;13.378;2023-05-16T11:19:17;10.57;;;7.55;;
48487;SDS011;34289;48.572;13.378;2023-05-16T11:25:03;9.45;;;6.75;;
48487;SDS011;34289;48.572;13.378;2023-05-16T11:27:43;6.82;;;6.13;;
48487;SDS011;34289;48.572;13.378;2023-05-16T11:30:13;7.25;;;6.28;;
48487;SDS011;34289;48.572;13.378;2023-05-16T11:32:42;9.45;;;6.88;;
48487;SDS011;34289;48.572;13.378;2023-05-16T11:35:10;7.55;;;6.78;;
48487;SDS011;34289;48.572;13.378;2023-05-16T11:37:39;7.60;;;6.60;;
48487;SDS011;34289;48.572;13.378;2023-05-16T11:40:06;8.65;;;7.43;;
48487;SDS011;34289;48.572;13.378;2023-05-16T11:42:34;9.68;;;6.85;;
48487;SDS011;34289;48.572;13.378;2023-05-16T11:45:10;8.43;;;7.43;;
48487;SDS011;34289;48.572;13.378;2023-05-16T11:47:37;7.72;;;6.93;;
48487;SDS011;34289;48.572;13.378;2023-05-16T11:50:16;7.75;;;6.70;;
48487;SDS011;34289;48.572;13.378;2023-05-16T11:52:43;9.52;;;7.28;;
48487;SDS011;34289;48.572;13.378;2023-05-16T11:55:10;10.95;;;8.50;;
48487;SDS011;34289;48.572;13.378;2023-05-16T11:57:37;12.95;;;7.07;;
48487;SDS011;34289;48.572;13.378;2023-05-16T12:00:03;8.25;;;6.70;;
48487;SDS011;34289;48.572;13.378;2023-05-16T12:02:35;11.35;;;5.85;;
48487;SDS011;34289;48.572;13.378;2023-05-16T12:05:07;10.02;;;6.80;;
48487;SDS011;34289;48.572;13.378;2023-05-16T12:07:34;7.70;;;6.20;;
48487;SDS011;34289;48.572;13.378;2023-05-16T12:10:04;5.70;;;4.60;;
48487;SDS011;34289;48.572;13.378;2023-05-16T12:12:31;10.27;;;5.70;;
48487;SDS011;34289;48.572;13.378;2023-05-16T12:14:57;7.18;;;5.10;;
48487;SDS011;34289;48.572;13.378;2023-05-16T12:17:23;5.78;;;4.80;;
48487;SDS011;34289;48.572;13.378;2023-05-16T12:19:49;7.35;;;5.40;;
48487;SDS011;34289;48.572;13.378;2023-05-16T12:22:16;6.85;;;5.30;;
48487;SDS011;34289;48.572;13.378;2023-05-16T12:24:45;6.93;;;5.60;;
48487;SDS011;34289;48.572;13.378;2023-05-16T12:27:11;8.48;;;5.53;;
48487;SDS011;34289;48.572;13.378;2023-05-16T12:29:37;13.70;;;8.38;;
48487;SDS011;34289;48.572;13.378;2023-05-16T12:32:03;10.25;;;7.13;;
48487;SDS011;34289;48.572;13.378;2023-05-16T12:34:32;8.38;;;6.10;;
48487;SDS011;34289;48.572;13.378;2023-05-16T12:36:58;10.30;;;6.47;;
48487;SDS011;34289;48.572;13.378;2023-05-16T12:39:25;9.40;;;5.97;;
48487;SDS011;34289;48.572;13.378;2023-05-16T12:41:51;6.97;;;5.72;;
48487;SDS011;34289;48.572;13.378;2023-05-16T12:44:18;6.93;;;6.22;;
48487;SDS011;34289;48.572;13.378;2023-05-16T12:46:44;8.35;;;5.65;;
48487;SDS011;34289;48.572;13.378;2023-05-16T12:49:12;6.82;;;5.82;;
48487;SDS011;34289;48.572;13.378;2023-05-16T12:51:38;8.82;;;6.05;;
48487;SDS011;34289;48.572;13.378;2023-05-16T12:54:08;8.82;;;6.85;;
48487;SDS011;34289;48.572;13.378;2023-05-16T12:56:35;7.07;;;6.28;;
48487;SDS011;34289;48.572;13.378;2023-05-16T12:59:02;10.88;;;6.78;;
48487;SDS011;34289;48.572;13.378;2023-05-16T13:01:28;9.25;;;6.60;;
48487;SDS011;34289;48.572;13.378;2023-05-16T13:03:54;6.18;;;4.85;;
48487;SDS011;34289;48.572;13.378;2023-05-16T13:06:20;5.57;;;4.43;;
48487;SDS011;34289;48.572;13.378;2023-05-16T13:08:45;8.65;;;4.93;;
48487;SDS011;34289;48.572;13.378;2023-05-16T13:11:11;6.43;;;5.47;;
48487;SDS011;34289;48.572;13.378;2023-05-16T13:13:37;8.32;;;5.63;;
48487;SDS011;34289;48.572;13.378;2023-05-16T13:16:03;6.38;;;5.20;;
48487;SDS011;34289;48.572;13.378;2023-05-16T13:18:29;7.25;;;5.93;;
48487;SDS011;34289;48.572;13.378;2023-05-16T13:20:55;10.13;;;5.15;;
48487;SDS011;34289;48.572;13.378;2023-05-16T13:23:21;5.18;;;4.47;;
48487;SDS011;34289;48.572;13.378;2023-05-16T13:25:47;7.00;;;4.32;;
48487;SDS011;34289;48.572;13.378;2023-05-16T13:28:13;5.47;;;4.35;;
48487;SDS011;34289;48.572;13.378;2023-05-16T13:30:39;5.85;;;4.85;;
48487;SDS011;34289;48.572;13.378;2023-05-16T13:33:05;7.90;;;5.03;;
48487;SDS011;34289;48.572;13.378;2023-05-16T13:35:31;5.15;;;4.07;;
48487;SDS011;34289;48.572;13.378;2023-05-16T13:38:00;4.68;;;3.50;;
48487;SDS011;34289;48.572;13.378;2023-05-16T13:40:27;5.43;;;3.97;;
48487;SDS011;34289;48.572;13.378;2023-05-16T13:42:53;5.13;;;4.07;;
48487;SDS011;34289;48.572;13.378;2023-05-16T13:45:20;6.50;;;4.95;;
48487;SDS011;34289;48.572;13.378;2023-05-16T13:47:46;7.72;;;4.70;;
48487;SDS011;34289;48.572;13.378;2023-05-16T13:50:12;5.88;;;5.28;;
48487;SDS011;34289;48.572;13.378;2023-05-16T13:52:38;4.72;;;4.25;;
48487;SDS011;34289;48.572;13.378;2023-05-16T13:55:05;4.93;;;4.32;;
48487;SDS011;34289;48.572;13.378;2023-05-16T13:57:31;4.65;;;4.10;;
48487;SDS011;34289;48.572;13.378;2023-05-16T13:59:57;6.00;;;4.07;;
48487;SDS011;34289;48.572;13.378;2023-05-16T14:02:23;4.53;;;3.47;;
48487;SDS011;34289;48.572;13.378;2023-05-16T14:04:50;5.40;;;3.80;;
48487;SDS011;34289;48.572;13.378;2023-05-16T14:07:16;5.68;;;3.83;;
48487;SDS011;34289;48.572;13.378;2023-05-16T14:09:42;10.68;;;4.65;;
48487;SDS011;34289;48.572;13.378;2023-05-16T14:12:09;6.43;;;5.20;;
48487;SDS011;34289;48.572;13.378;2023-05-16T14:14:35;7.60;;;6.30;;
48487;SDS011;34289;48.572;13.378;2023-05-16T14:17:02;7.00;;;5.75;;
48487;SDS011;34289;48.572;13.378;2023-05-16T14:19:28;8.63;;;4.78;;
48487;SDS011;34289;48.572;13.378;2023-05-16T14:21:54;3.85;;;3.53;;
48487;SDS011;34289;48.572;13.378;2023-05-16T14:24:21;4.93;;;4.25;;
48487;SDS011;34289;48.572;13.378;2023-05-16T14:26:47;6.63;;;4.18;;
48487;SDS011;34289;48.572;13.378;2023-05-16T14:29:13;4.32;;;3.92;;
48487;SDS011;34289;48.572;13.378;2023-05-16T14:31:39;8.00;;;4.47;;
48487;SDS011;34289;48.572;13.378;2023-05-16T14:34:05;11.10;;;5.60;;
48487;SDS011;34289;48.572;13.378;2023-05-16T14:36:31;5.40;;;4.18;;
48487;SDS011;34289;48.572;13.378;2023-05-16T14:38:57;6.28;;;5.63;;
48487;SDS011;34289;48.572;13.378;2023-05-16T14:41:23;7.15;;;6.38;;
48487;SDS011;34289;48.572;13.378;2023-05-16T14:43:49;8.00;;;6.03;;
48487;SDS011;34289;48.572;13.378;2023-05-16T14:46:15;6.05;;;5.47;;
48487;SDS011;34289;48.572;13.378;2023-05-16T14:48:42;8.07;;;5.32;;
48487;SDS011;34289;48.572;13.378;2023-05-16T14:51:08;5.45;;;4.88;;
48487;SDS011;34289;48.572;13.378;2023-05-16T14:53:34;6.78;;;5.85;;